createdAt,value
2022-08-30T00:03:21.047Z,7.47
2022-08-30T00:08:23.855Z,7.13
2022-08-30T00:13:26.440Z,6.55
2022-08-30T00:18:28.716Z,7.25
2022-08-30T00:23:31.428Z,6.80
2022-08-30T00:28:34.398Z,6.80
2022-08-30T00:33:37.238Z,8.38
2022-08-30T00:38:39.505Z,7.72
2022-08-30T00:43:42.131Z,7.57
2022-08-30T00:48:46.590Z,7.47
2022-08-30T00:53:55.077Z,8.70
2022-08-30T01:04:00.869Z,7.20
2022-08-30T01:09:05.620Z,6.93
2022-08-30T01:14:09.124Z,8.57
2022-08-30T01:19:27.437Z,7.00
2022-08-30T01:24:30.844Z,6.43
2022-08-30T01:29:33.333Z,7.33
2022-08-30T01:34:35.676Z,7.83
2022-08-30T01:39:38.512Z,7.77
2022-08-30T01:44:40.853Z,7.17
2022-08-30T01:49:43.904Z,7.47
2022-08-30T01:54:46.972Z,8.73
2022-08-30T01:59:50.470Z,7.33
2022-08-30T02:04:53.766Z,7.47
2022-08-30T02:09:57.098Z,8.30
2022-08-30T02:14:59.456Z,7.20
2022-08-30T02:20:02.180Z,7.67
2022-08-30T02:25:07.435Z,7.93
2022-08-30T02:30:22.964Z,8.00
2022-08-30T02:35:25.527Z,8.10
2022-08-30T02:40:27.884Z,6.80
2022-08-30T02:45:30.353Z,8.03
2022-08-30T02:50:32.648Z,9.37
2022-08-30T02:55:35.070Z,8.40
2022-08-30T03:00:37.844Z,8.30
2022-08-30T03:05:40.085Z,7.23
2022-08-30T03:10:44.287Z,7.97
2022-08-30T03:15:48.019Z,7.53
2022-08-30T03:20:54.233Z,8.23
2022-08-30T03:25:57.652Z,8.50
2022-08-30T03:31:00.096Z,9.23
2022-08-30T03:36:02.554Z,7.17
2022-08-30T03:41:06.166Z,7.73
2022-08-30T03:46:11.640Z,8.23
2022-08-30T03:51:13.942Z,8.40
2022-08-30T03:56:16.532Z,7.83
2022-08-30T04:01:18.980Z,8.60
2022-08-30T04:06:21.253Z,8.23
2022-08-30T04:11:23.520Z,8.97
2022-08-30T04:16:26.686Z,8.93
2022-08-30T04:21:31.099Z,8.50
2022-08-30T04:26:34.281Z,8.27
2022-08-30T04:31:36.589Z,9.27
2022-08-30T04:36:39.274Z,9.53
2022-08-30T04:41:41.524Z,10.17
2022-08-30T04:46:44.425Z,9.93
2022-08-30T04:51:47.312Z,9.97
2022-08-30T04:56:52.403Z,10.37
2022-08-30T05:01:54.844Z,10.37
2022-08-30T05:06:57.192Z,11.27
2022-08-30T05:11:59.410Z,11.10
2022-08-30T05:17:01.700Z,12.20
2022-08-30T05:22:04.398Z,12.57
2022-08-30T05:27:06.718Z,13.33
2022-08-30T05:32:09.483Z,12.03
2022-08-30T05:37:11.708Z,13.50
2022-08-30T05:42:16.883Z,16.23
2022-08-30T05:47:20.157Z,15.23
2022-08-30T05:52:22.529Z,13.48
2022-08-30T05:57:25.217Z,12.67
2022-08-30T06:02:28.246Z,13.45
2022-08-30T06:07:30.505Z,13.70
2022-08-30T06:12:32.987Z,12.82
2022-08-30T06:17:35.224Z,14.38
2022-08-30T06:22:39.151Z,14.35
2022-08-30T06:27:42.419Z,13.30
2022-08-30T06:32:44.721Z,12.65
2022-08-30T06:37:46.983Z,13.45
2022-08-30T06:42:49.587Z,11.88
2022-08-30T06:47:51.834Z,13.15
2022-08-30T06:52:54.542Z,12.30
2022-08-30T06:58:00.774Z,13.77
2022-08-30T07:03:03.205Z,13.40
2022-08-30T07:08:05.524Z,13.07
2022-08-30T07:13:09.611Z,11.88
2022-08-30T07:18:31.445Z,12.13
2022-08-30T07:23:35.457Z,12.98
2022-08-30T07:28:39.201Z,12.85
2022-08-30T07:33:41.843Z,13.23
2022-08-30T07:38:46.082Z,13.95
2022-08-30T07:43:48.508Z,14.10
2022-08-30T07:48:51.454Z,13.60
2022-08-30T07:53:54.927Z,13.55
2022-08-30T07:58:57.233Z,13.77
2022-08-30T08:03:59.530Z,13.27
2022-08-30T08:09:02.659Z,14.77
2022-08-30T08:14:05.238Z,12.48
2022-08-30T08:19:09.486Z,14.18
2022-08-30T08:24:11.986Z,14.43
2022-08-30T08:29:14.326Z,14.68
2022-08-30T08:34:19.250Z,12.35
2022-08-30T08:39:21.496Z,14.63
2022-08-30T08:50:19.565Z,12.20
2022-08-30T08:55:22.997Z,13.65
2022-08-30T09:00:25.742Z,11.73
2022-08-30T09:05:37.824Z,11.82
2022-08-30T09:10:50.568Z,12.10
2022-08-30T09:15:56.696Z,10.90
2022-08-30T09:26:09.845Z,12.27
2022-08-30T09:31:26.374Z,11.85
2022-08-30T09:36:33.779Z,10.75
2022-08-30T09:41:42.853Z,11.38
2022-08-30T09:46:52.366Z,11.32
2022-08-30T09:52:03.768Z,10.88
2022-08-30T09:57:17.080Z,11.50
2022-08-30T10:02:58.338Z,10.90
2022-08-30T10:08:12.463Z,9.48
2022-08-30T10:13:42.862Z,8.45
2022-08-30T10:19:10.267Z,10.07
2022-08-30T10:24:19.590Z,11.60
2022-08-30T10:29:29.045Z,12.23
2022-08-30T10:34:52.350Z,11.50
2022-08-30T10:39:59.495Z,12.68
2022-08-30T10:45:08.983Z,13.85
2022-08-30T10:50:19.725Z,11.63
2022-08-30T10:55:29.261Z,12.25
2022-08-30T11:00:56.354Z,12.02
2022-08-30T11:06:01.649Z,11.88
2022-08-30T11:11:18.114Z,11.50
2022-08-30T11:16:20.755Z,12.93
2022-08-30T11:21:34.384Z,12.30
2022-08-30T11:26:46.060Z,12.73
2022-08-30T11:31:48.352Z,11.77
2022-08-30T11:36:53.792Z,12.55
2022-08-30T11:42:14.121Z,13.27
2022-08-30T11:47:40.095Z,10.93
2022-08-30T11:53:07.037Z,10.65
2022-08-30T11:58:25.742Z,12.18
2022-08-30T12:03:33.393Z,12.25
2022-08-30T12:08:44.789Z,12.73
2022-08-30T12:13:47.179Z,12.65
2022-08-30T12:19:00.443Z,11.05
2022-08-30T12:24:30.626Z,14.20
2022-08-30T12:29:32.935Z,15.43
2022-08-30T12:34:41.302Z,14.75
2022-08-30T12:39:44.394Z,13.27
2022-08-30T12:44:48.070Z,11.02
2022-08-30T12:49:50.878Z,11.65
2022-08-30T12:54:54.897Z,13.90
2022-08-30T13:00:02.020Z,12.13
2022-08-30T13:05:45.544Z,12.60
2022-08-30T13:10:54.389Z,10.88
2022-08-30T13:15:56.641Z,15.32
2022-08-30T13:21:25.918Z,12.88
2022-08-30T13:26:30.402Z,11.95
2022-08-30T13:31:33.308Z,18.88
2022-08-30T13:36:44.845Z,18.85
2022-08-30T13:41:47.611Z,13.57
2022-08-30T13:46:55.357Z,12.50
2022-08-30T13:52:19.214Z,16.80
2022-08-30T14:02:51.505Z,13.73
2022-08-30T14:07:59.042Z,11.35
2022-08-30T14:13:13.987Z,12.25
2022-08-30T14:18:18.049Z,18.75
2022-08-30T14:23:21.690Z,22.05
2022-08-30T14:28:24.759Z,14.30
2022-08-30T14:33:27.167Z,14.55
2022-08-30T14:38:29.487Z,24.98
2022-08-30T14:43:31.854Z,27.48
2022-08-30T14:48:34.161Z,42.53
2022-08-30T14:53:37.123Z,23.83
2022-08-30T14:58:39.676Z,30.10
2022-08-30T15:03:42.182Z,17.88
2022-08-30T15:08:47.884Z,15.18
2022-08-30T15:13:52.969Z,14.77
2022-08-30T15:18:56.228Z,14.25
2022-08-30T15:24:01.743Z,16.02
2022-08-30T15:29:04.336Z,12.43
2022-08-30T15:34:13.428Z,8.70
2022-08-30T15:39:16.693Z,9.10
2022-08-30T15:44:19.196Z,8.55
2022-08-30T15:49:23.114Z,8.05
2022-08-30T15:54:26.006Z,8.43
2022-08-30T15:59:29.598Z,9.13
2022-08-30T16:04:31.964Z,7.80
2022-08-30T16:09:35.455Z,8.57
2022-08-30T16:14:40.377Z,10.55
2022-08-30T16:19:42.756Z,14.73
2022-08-30T16:24:46.744Z,14.32
2022-08-30T16:29:50.188Z,14.75
2022-08-30T16:34:52.587Z,12.25
2022-08-30T16:39:54.807Z,12.80
2022-08-30T16:44:57.698Z,12.88
2022-08-30T16:50:00.827Z,14.35
2022-08-30T16:55:03.349Z,13.50
2022-08-30T17:00:13.210Z,14.15
2022-08-30T17:05:15.929Z,24.63
2022-08-30T17:10:20.918Z,31.88
2022-08-30T17:15:27.309Z,31.27
2022-08-30T17:20:34.024Z,16.38
2022-08-30T17:25:37.141Z,14.07
2022-08-30T17:30:39.692Z,12.30
2022-08-30T17:35:42.473Z,9.90
2022-08-30T17:40:44.898Z,10.63
2022-08-30T17:45:47.314Z,16.10
2022-08-30T17:50:57.783Z,16.85
2022-08-30T17:56:00.325Z,11.35
2022-08-30T18:01:11.898Z,8.30
2022-08-30T18:06:17.293Z,8.52
2022-08-30T18:11:19.701Z,9.73
2022-08-30T18:16:26.543Z,8.60
2022-08-30T18:21:29.229Z,5.97
2022-08-30T18:26:32.315Z,6.35
2022-08-30T18:31:35.018Z,6.47
2022-08-30T18:36:38.776Z,6.65
2022-08-30T18:41:42.950Z,6.45
2022-08-30T18:46:55.858Z,6.22
2022-08-30T18:52:02.282Z,7.55
2022-08-30T18:57:05.836Z,7.53
2022-08-30T19:02:11.341Z,6.53
2022-08-30T19:07:18.213Z,6.90
2022-08-30T19:12:21.099Z,7.50
2022-08-30T19:17:23.988Z,6.93
2022-08-30T19:22:39.825Z,7.38
2022-08-30T19:27:51.680Z,7.03
2022-08-30T19:32:54.141Z,6.22
2022-08-30T19:37:56.685Z,6.68
2022-08-30T19:42:59.323Z,7.95
2022-08-30T19:48:02.344Z,8.38
2022-08-30T19:53:05.548Z,5.65
2022-08-30T19:58:07.950Z,4.82
2022-08-30T20:03:11.328Z,4.20
2022-08-30T20:08:13.920Z,4.50
2022-08-30T20:13:16.174Z,3.70
2022-08-30T20:18:18.569Z,4.65
2022-08-30T20:23:24.118Z,3.22
2022-08-30T20:28:27.998Z,3.38
2022-08-30T20:33:30.490Z,4.55
2022-08-30T20:38:33.313Z,3.50
2022-08-30T20:43:35.583Z,3.78
2022-08-30T20:48:38.719Z,3.45
2022-08-30T20:53:41.078Z,3.13
2022-08-30T20:58:46.692Z,3.70
2022-08-30T21:03:48.998Z,3.55
2022-08-30T21:08:51.756Z,4.00
2022-08-30T21:13:54.016Z,4.50
2022-08-30T21:18:56.508Z,4.95
2022-08-30T21:24:01.560Z,6.10
2022-08-30T21:29:04.741Z,6.25
2022-08-30T21:34:07.462Z,5.82
2022-08-30T21:39:20.052Z,6.22
2022-08-30T21:44:26.005Z,5.50
2022-08-30T21:49:28.299Z,6.10
2022-08-30T21:54:31.199Z,5.70
2022-08-30T21:59:34.132Z,5.88
2022-08-30T22:04:36.468Z,6.65
2022-08-30T22:09:38.796Z,5.80
2022-08-30T22:14:41.180Z,6.45
2022-08-30T22:19:43.446Z,6.40
2022-08-30T22:24:45.951Z,6.28
2022-08-30T22:29:48.302Z,7.03
2022-08-30T22:34:51.214Z,5.60
2022-08-30T22:39:53.580Z,7.30
2022-08-30T22:44:55.869Z,6.25
2022-08-30T22:49:58.111Z,8.20
2022-08-30T22:55:00.406Z,17.65
2022-08-30T23:00:06.309Z,24.27
2022-08-30T23:05:09.370Z,33.03
2022-08-30T23:10:12.597Z,30.90
2022-08-30T23:15:16.320Z,32.37
2022-08-30T23:20:18.753Z,33.63
2022-08-30T23:25:41.661Z,33.43
2022-08-30T23:31:05.315Z,27.23
2022-08-30T23:36:31.602Z,24.50
2022-08-30T23:41:52.360Z,21.93
2022-08-30T23:47:13.159Z,22.23
2022-08-30T23:52:33.874Z,18.67
2022-08-30T23:57:54.664Z,19.17
